Seri Ayu — 9MFE7 — position and weather

sailwx.info

Track history (hours):
 
Tides and Currents Weather Stations Pressure Air Temp Water Temp Dewpoint Dewpoint Depression Visibility Wind Speed Wind Dir Waves Ship Positions

Seri Ayu

Last reported at 2018-Jan-11 01:33 UTC. Time now 2018-Jan-19 09:27 UTC.
Position N 34°48' E 130°29'.
Warning: this ship's position is 8 days out of date.

Length 283 m; draft 11.8 m.

Type: Tanker. MMSI: 533942000.

Date/timePositionNaut miles runAvg speedWind from/ knotsBaromVisibWave heightAir tempDewpointWater temp
2018-Jan-11 01:33N 34°48' E 130°29'618.7
2018-Jan-11 01:14N 34°44' E 130°24'619.0
2018-Jan-11 00:56N 34°40' E 130°19'819.1
2018-Jan-11 00:30N 34°35' E 130°11'1019.6
2018-Jan-11 00:00N 34°28' E 130°03'66717.2
2018-Jan-09 09:13N 24°55' E 123°30'419.3
2018-Jan-09 09:00N 24°51' E 123°28'918.9
2018-Jan-09 08:30N 24°43' E 123°24'918.9
2018-Jan-09 08:00N 24°34' E 123°20'919.0
2018-Jan-09 07:31N 24°25' E 123°17'918.3
2018-Jan-09 07:00N 24°16' E 123°14'918.4
2018-Jan-09 06:30N 24°08' E 123°10'918.6
2018-Jan-09 06:00N 23°59' E 123°07'918.2
2018-Jan-09 05:30N 23°50' E 123°04'918.3
2018-Jan-09 05:00N 23°41' E 123°01'  
Track history (hours):
 
Tides and Currents Weather Stations Pressure Air Temp Water Temp Dewpoint Dewpoint Depression Visibility Wind Speed Wind Dir Waves Ship Positions

Seri Ayu

Last reported at 2018-Jan-11 01:33 UTC. Time now 2018-Jan-19 09:27 UTC.
Position N 34°48' E 130°29'.
Warning: this ship's position is 8 days out of date.

Length 283 m; draft 11.8 m.

Type: Tanker. MMSI: 533942000.

Date/timePositionNaut miles runAvg speedWind from/ knotsBaromVisibWave heightAir tempDewpointWater temp
2018-Jan-11 01:33N 34°48' E 130°29'618.7
2018-Jan-11 01:14N 34°44' E 130°24'619.0
2018-Jan-11 00:56N 34°40' E 130°19'819.1
2018-Jan-11 00:30N 34°35' E 130°11'1019.6
2018-Jan-11 00:00N 34°28' E 130°03'66717.2
2018-Jan-09 09:13N 24°55' E 123°30'419.3
2018-Jan-09 09:00N 24°51' E 123°28'918.9
2018-Jan-09 08:30N 24°43' E 123°24'918.9
2018-Jan-09 08:00N 24°34' E 123°20'919.0
2018-Jan-09 07:31N 24°25' E 123°17'918.3
2018-Jan-09 07:00N 24°16' E 123°14'918.4
2018-Jan-09 06:30N 24°08' E 123°10'918.6
2018-Jan-09 06:00N 23°59' E 123°07'918.2
2018-Jan-09 05:30N 23°50' E 123°04'918.3
2018-Jan-09 05:00N 23°41' E 123°01'  

Dump ship's entire track history